Terminal Aerodrome Forecast
Issued by NWS

Home | Current Version | Previous Version | Graphics & Text | Print | Product List | Glossary On
Versions: 1 2 3 4 5 6 7 8 9 10 11 12 13
000
FTUS43 KMPX 252320
TAFRNH
TAF
KRNH 252320Z 2600/2624 15008KT P6SM SCT070
     FM260300 15006KT P6SM VCSH BKN050
     FM260800 15005KT P6SM BKN040
     FM261500 17006KT P6SM BKN030
      TEMPO 2615/2618 BKN020
     FM261800 19007KT P6SM SCT030 BKN050 PROB30 2619/2622 -TSRA
      BKN035CB=

USA.gov is the U.S. government's official web portal to all federal, state and local government web resources and services.